sensor_id;sensor_type;location;lat;lon;timestamp;P1;durP1;ratioP1;P2;durP2;ratioP2
43580;SDS011;29175;51.030;4.606;2023-02-28T00:00:28;15.10;;;8.75;;
43580;SDS011;29175;51.030;4.606;2023-02-28T00:02:54;33.78;;;10.38;;
43580;SDS011;29175;51.030;4.606;2023-02-28T00:05:20;32.40;;;10.10;;
43580;SDS011;29175;51.030;4.606;2023-02-28T00:07:47;17.77;;;9.75;;
43580;SDS011;29175;51.030;4.606;2023-02-28T00:10:21;16.25;;;9.20;;
43580;SDS011;29175;51.030;4.606;2023-02-28T00:12:51;20.52;;;9.80;;
43580;SDS011;29175;51.030;4.606;2023-02-28T00:15:19;17.95;;;9.98;;
43580;SDS011;29175;51.030;4.606;2023-02-28T00:17:45;19.65;;;9.68;;
43580;SDS011;29175;51.030;4.606;2023-02-28T00:20:11;26.25;;;10.60;;
43580;SDS011;29175;51.030;4.606;2023-02-28T00:22:39;16.20;;;9.68;;
43580;SDS011;29175;51.030;4.606;2023-02-28T00:25:07;16.40;;;9.50;;
43580;SDS011;29175;51.030;4.606;2023-02-28T00:27:34;18.02;;;9.50;;
43580;SDS011;29175;51.030;4.606;2023-02-28T00:30:01;21.10;;;9.73;;
43580;SDS011;29175;51.030;4.606;2023-02-28T00:32:28;20.00;;;9.70;;
43580;SDS011;29175;51.030;4.606;2023-02-28T00:34:54;17.88;;;9.73;;
43580;SDS011;29175;51.030;4.606;2023-02-28T00:37:20;19.27;;;10.73;;
43580;SDS011;29175;51.030;4.606;2023-02-28T00:39:46;24.65;;;11.00;;
43580;SDS011;29175;51.030;4.606;2023-02-28T00:42:12;17.00;;;10.35;;
43580;SDS011;29175;51.030;4.606;2023-02-28T00:44:38;17.40;;;9.98;;
43580;SDS011;29175;51.030;4.606;2023-02-28T00:47:04;25.05;;;10.07;;
43580;SDS011;29175;51.030;4.606;2023-02-28T00:49:30;23.42;;;10.90;;
43580;SDS011;29175;51.030;4.606;2023-02-28T00:51:56;21.80;;;10.32;;
43580;SDS011;29175;51.030;4.606;2023-02-28T00:54:22;25.90;;;10.63;;
43580;SDS011;29175;51.030;4.606;2023-02-28T00:56:48;23.27;;;10.98;;
43580;SDS011;29175;51.030;4.606;2023-02-28T00:59:14;18.92;;;10.02;;
43580;SDS011;29175;51.030;4.606;2023-02-28T01:01:41;20.60;;;10.32;;
43580;SDS011;29175;51.030;4.606;2023-02-28T01:04:08;24.90;;;11.32;;
43580;SDS011;29175;51.030;4.606;2023-02-28T01:06:34;23.35;;;10.38;;
43580;SDS011;29175;51.030;4.606;2023-02-28T01:09:01;23.08;;;10.88;;
43580;SDS011;29175;51.030;4.606;2023-02-28T01:11:28;21.98;;;11.20;;
43580;SDS011;29175;51.030;4.606;2023-02-28T01:13:54;23.33;;;11.10;;
43580;SDS011;29175;51.030;4.606;2023-02-28T01:16:20;18.00;;;10.07;;
43580;SDS011;29175;51.030;4.606;2023-02-28T01:18:45;20.77;;;10.50;;
43580;SDS011;29175;51.030;4.606;2023-02-28T01:21:12;22.65;;;11.05;;
43580;SDS011;29175;51.030;4.606;2023-02-28T01:23:42;20.48;;;11.68;;
43580;SDS011;29175;51.030;4.606;2023-02-28T01:26:10;23.02;;;11.20;;
43580;SDS011;29175;51.030;4.606;2023-02-28T01:28:46;25.10;;;11.05;;
43580;SDS011;29175;51.030;4.606;2023-02-28T01:31:13;23.05;;;11.77;;
43580;SDS011;29175;51.030;4.606;2023-02-28T01:33:39;28.77;;;12.15;;
43580;SDS011;29175;51.030;4.606;2023-02-28T01:36:06;22.52;;;11.93;;
43580;SDS011;29175;51.030;4.606;2023-02-28T01:38:35;21.27;;;10.82;;
43580;SDS011;29175;51.030;4.606;2023-02-28T01:41:01;22.73;;;11.82;;
43580;SDS011;29175;51.030;4.606;2023-02-28T01:43:29;28.83;;;11.45;;
43580;SDS011;29175;51.030;4.606;2023-02-28T01:45:57;23.85;;;11.30;;
43580;SDS011;29175;51.030;4.606;2023-02-28T01:48:31;21.88;;;12.18;;
43580;SDS011;29175;51.030;4.606;2023-02-28T01:51:01;24.27;;;11.77;;
43580;SDS011;29175;51.030;4.606;2023-02-28T01:53:34;30.02;;;11.38;;
43580;SDS011;29175;51.030;4.606;2023-02-28T01:56:06;21.88;;;11.32;;
43580;SDS011;29175;51.030;4.606;2023-02-28T01:58:36;23.65;;;11.35;;
43580;SDS011;29175;51.030;4.606;2023-02-28T02:01:03;28.98;;;12.43;;
43580;SDS011;29175;51.030;4.606;2023-02-28T02:03:29;23.95;;;12.10;;
43580;SDS011;29175;51.030;4.606;2023-02-28T02:05:56;24.67;;;12.95;;
43580;SDS011;29175;51.030;4.606;2023-02-28T02:08:23;25.50;;;12.15;;
43580;SDS011;29175;51.030;4.606;2023-02-28T02:10:52;27.92;;;12.88;;
43580;SDS011;29175;51.030;4.606;2023-02-28T02:19:19;21.17;;;11.73;;
43580;SDS011;29175;51.030;4.606;2023-02-28T02:22:06;35.08;;;13.23;;
43580;SDS011;29175;51.030;4.606;2023-02-28T02:36:13;29.98;;;13.70;;
43580;SDS011;29175;51.030;4.606;2023-02-28T02:38:43;26.48;;;12.63;;
43580;SDS011;29175;51.030;4.606;2023-02-28T02:46:42;29.95;;;13.55;;
43580;SDS011;29175;51.030;4.606;2023-02-28T02:49:19;23.95;;;12.82;;
43580;SDS011;29175;51.030;4.606;2023-02-28T02:51:49;25.50;;;12.20;;
43580;SDS011;29175;51.030;4.606;2023-02-28T02:54:21;22.48;;;11.98;;
43580;SDS011;29175;51.030;4.606;2023-02-28T02:56:54;25.88;;;13.50;;
43580;SDS011;29175;51.030;4.606;2023-02-28T02:59:24;31.40;;;12.93;;
43580;SDS011;29175;51.030;4.606;2023-02-28T03:01:54;19.83;;;10.23;;
43580;SDS011;29175;51.030;4.606;2023-02-28T03:04:22;29.23;;;11.75;;
43580;SDS011;29175;51.030;4.606;2023-02-28T03:06:50;26.30;;;12.27;;
43580;SDS011;29175;51.030;4.606;2023-02-28T03:11:47;26.52;;;12.23;;
43580;SDS011;29175;51.030;4.606;2023-02-28T03:14:17;21.27;;;11.95;;
43580;SDS011;29175;51.030;4.606;2023-02-28T03:17:13;24.92;;;12.68;;
43580;SDS011;29175;51.030;4.606;2023-02-28T03:25:25;25.73;;;13.10;;
43580;SDS011;29175;51.030;4.606;2023-02-28T03:31:03;26.33;;;13.52;;
43580;SDS011;29175;51.030;4.606;2023-02-28T03:33:40;26.90;;;12.85;;
43580;SDS011;29175;51.030;4.606;2023-02-28T03:36:11;25.50;;;12.70;;
43580;SDS011;29175;51.030;4.606;2023-02-28T03:38:53;24.20;;;12.25;;
43580;SDS011;29175;51.030;4.606;2023-02-28T03:41:48;22.73;;;12.50;;
43580;SDS011;29175;51.030;4.606;2023-02-28T03:44:23;26.88;;;12.40;;
43580;SDS011;29175;51.030;4.606;2023-02-28T03:47:06;26.00;;;13.38;;
43580;SDS011;29175;51.030;4.606;2023-02-28T03:49:58;23.50;;;12.27;;
43580;SDS011;29175;51.030;4.606;2023-02-28T03:52:29;25.60;;;12.50;;
43580;SDS011;29175;51.030;4.606;2023-02-28T03:54:59;27.27;;;12.20;;
43580;SDS011;29175;51.030;4.606;2023-02-28T04:02:42;28.77;;;12.55;;
43580;SDS011;29175;51.030;4.606;2023-02-28T04:05:08;26.05;;;12.52;;
43580;SDS011;29175;51.030;4.606;2023-02-28T04:07:35;24.10;;;12.80;;
43580;SDS011;29175;51.030;4.606;2023-02-28T04:10:01;23.52;;;11.52;;
43580;SDS011;29175;51.030;4.606;2023-02-28T04:12:26;24.70;;;13.00;;
43580;SDS011;29175;51.030;4.606;2023-02-28T04:14:52;28.90;;;11.98;;
43580;SDS011;29175;51.030;4.606;2023-02-28T04:17:18;31.95;;;13.30;;
43580;SDS011;29175;51.030;4.606;2023-02-28T04:19:44;32.20;;;13.55;;
43580;SDS011;29175;51.030;4.606;2023-02-28T04:22:10;26.40;;;13.18;;
43580;SDS011;29175;51.030;4.606;2023-02-28T04:24:36;29.58;;;13.63;;
43580;SDS011;29175;51.030;4.606;2023-02-28T04:27:02;30.08;;;13.48;;
43580;SDS011;29175;51.030;4.606;2023-02-28T04:29:29;31.30;;;13.90;;
43580;SDS011;29175;51.030;4.606;2023-02-28T04:31:57;31.25;;;13.98;;
43580;SDS011;29175;51.030;4.606;2023-02-28T04:34:25;26.02;;;13.52;;
43580;SDS011;29175;51.030;4.606;2023-02-28T04:36:53;24.92;;;12.95;;
43580;SDS011;29175;51.030;4.606;2023-02-28T04:39:20;32.03;;;13.38;;
43580;SDS011;29175;51.030;4.606;2023-02-28T04:41:47;26.77;;;14.25;;
43580;SDS011;29175;51.030;4.606;2023-02-28T04:44:13;38.22;;;14.15;;
43580;SDS011;29175;51.030;4.606;2023-02-28T04:46:39;25.80;;;13.75;;
43580;SDS011;29175;51.030;4.606;2023-02-28T04:49:06;23.08;;;13.15;;
43580;SDS011;29175;51.030;4.606;2023-02-28T04:51:33;26.88;;;13.68;;
43580;SDS011;29175;51.030;4.606;2023-02-28T04:53:58;27.02;;;13.07;;
43580;SDS011;29175;51.030;4.606;2023-02-28T04:56:24;23.45;;;12.32;;
43580;SDS011;29175;51.030;4.606;2023-02-28T04:58:50;27.77;;;12.65;;
43580;SDS011;29175;51.030;4.606;2023-02-28T05:01:19;24.65;;;12.32;;
43580;SDS011;29175;51.030;4.606;2023-02-28T05:03:51;31.48;;;12.50;;
43580;SDS011;29175;51.030;4.606;2023-02-28T05:06:19;29.23;;;12.43;;
43580;SDS011;29175;51.030;4.606;2023-02-28T05:08:46;29.48;;;12.27;;
43580;SDS011;29175;51.030;4.606;2023-02-28T05:11:14;24.33;;;12.15;;
43580;SDS011;29175;51.030;4.606;2023-02-28T05:13:40;25.80;;;12.38;;
43580;SDS011;29175;51.030;4.606;2023-02-28T05:16:06;25.73;;;12.05;;
43580;SDS011;29175;51.030;4.606;2023-02-28T05:18:32;29.60;;;13.18;;
43580;SDS011;29175;51.030;4.606;2023-02-28T05:20:59;28.42;;;12.98;;
43580;SDS011;29175;51.030;4.606;2023-02-28T05:23:27;30.92;;;12.27;;
43580;SDS011;29175;51.030;4.606;2023-02-28T05:25:53;29.00;;;11.50;;
43580;SDS011;29175;51.030;4.606;2023-02-28T05:28:19;29.52;;;11.68;;
43580;SDS011;29175;51.030;4.606;2023-02-28T05:30:45;26.70;;;12.05;;
43580;SDS011;29175;51.030;4.606;2023-02-28T05:33:12;27.13;;;12.15;;
43580;SDS011;29175;51.030;4.606;2023-02-28T05:35:41;27.85;;;11.63;;
43580;SDS011;29175;51.030;4.606;2023-02-28T05:38:10;25.60;;;11.65;;
43580;SDS011;29175;51.030;4.606;2023-02-28T05:40:37;24.58;;;10.93;;
43580;SDS011;29175;51.030;4.606;2023-02-28T05:43:04;24.25;;;12.15;;
43580;SDS011;29175;51.030;4.606;2023-02-28T05:45:30;22.60;;;12.10;;
43580;SDS011;29175;51.030;4.606;2023-02-28T05:47:56;34.65;;;11.90;;
43580;SDS011;29175;51.030;4.606;2023-02-28T05:50:21;43.47;;;12.65;;
43580;SDS011;29175;51.030;4.606;2023-02-28T05:52:51;25.58;;;12.15;;
43580;SDS011;29175;51.030;4.606;2023-02-28T05:57:43;26.88;;;10.40;;
43580;SDS011;29175;51.030;4.606;2023-02-28T06:00:09;25.92;;;11.82;;
43580;SDS011;29175;51.030;4.606;2023-02-28T06:02:37;27.13;;;11.40;;
43580;SDS011;29175;51.030;4.606;2023-02-28T06:05:05;17.17;;;8.97;;
43580;SDS011;29175;51.030;4.606;2023-02-28T06:07:34;26.15;;;12.48;;
43580;SDS011;29175;51.030;4.606;2023-02-28T06:09:59;23.63;;;11.93;;
43580;SDS011;29175;51.030;4.606;2023-02-28T06:12:25;36.00;;;12.75;;
43580;SDS011;29175;51.030;4.606;2023-02-28T06:14:51;29.42;;;11.77;;
43580;SDS011;29175;51.030;4.606;2023-02-28T06:17:17;41.20;;;13.10;;
43580;SDS011;29175;51.030;4.606;2023-02-28T06:19:43;23.77;;;12.02;;
43580;SDS011;29175;51.030;4.606;2023-02-28T06:22:18;82.10;;;13.82;;
43580;SDS011;29175;51.030;4.606;2023-02-28T06:24:44;30.30;;;11.88;;
43580;SDS011;29175;51.030;4.606;2023-02-28T06:27:09;43.63;;;13.27;;
43580;SDS011;29175;51.030;4.606;2023-02-28T06:29:35;26.40;;;11.52;;
43580;SDS011;29175;51.030;4.606;2023-02-28T06:32:05;25.75;;;11.88;;
43580;SDS011;29175;51.030;4.606;2023-02-28T06:34:31;24.15;;;10.35;;
43580;SDS011;29175;51.030;4.606;2023-02-28T06:36:59;26.13;;;11.52;;
43580;SDS011;29175;51.030;4.606;2023-02-28T06:39:27;25.55;;;10.45;;
43580;SDS011;29175;51.030;4.606;2023-02-28T06:41:56;27.30;;;11.10;;
43580;SDS011;29175;51.030;4.606;2023-02-28T06:44:22;26.95;;;12.70;;
43580;SDS011;29175;51.030;4.606;2023-02-28T06:47:07;25.83;;;11.07;;
43580;SDS011;29175;51.030;4.606;2023-02-28T06:49:49;20.35;;;10.40;;
43580;SDS011;29175;51.030;4.606;2023-02-28T06:52:15;21.25;;;10.60;;
43580;SDS011;29175;51.030;4.606;2023-02-28T06:54:41;23.70;;;10.73;;
43580;SDS011;29175;51.030;4.606;2023-02-28T06:57:07;36.55;;;12.95;;
43580;SDS011;29175;51.030;4.606;2023-02-28T06:59:33;38.50;;;11.60;;
43580;SDS011;29175;51.030;4.606;2023-02-28T07:02:00;54.90;;;13.75;;
43580;SDS011;29175;51.030;4.606;2023-02-28T07:04:27;58.42;;;13.63;;
43580;SDS011;29175;51.030;4.606;2023-02-28T07:06:53;28.10;;;11.63;;
43580;SDS011;29175;51.030;4.606;2023-02-28T07:09:21;36.40;;;11.10;;
43580;SDS011;29175;51.030;4.606;2023-02-28T07:11:46;21.30;;;10.60;;
43580;SDS011;29175;51.030;4.606;2023-02-28T07:14:12;22.65;;;10.50;;
43580;SDS011;29175;51.030;4.606;2023-02-28T07:16:38;25.92;;;11.02;;
43580;SDS011;29175;51.030;4.606;2023-02-28T07:19:04;26.48;;;11.07;;
43580;SDS011;29175;51.030;4.606;2023-02-28T07:21:29;42.50;;;11.73;;
43580;SDS011;29175;51.030;4.606;2023-02-28T07:23:55;30.15;;;11.48;;
43580;SDS011;29175;51.030;4.606;2023-02-28T07:26:21;23.52;;;11.10;;
43580;SDS011;29175;51.030;4.606;2023-02-28T07:28:47;17.67;;;10.10;;
43580;SDS011;29175;51.030;4.606;2023-02-28T07:31:14;20.10;;;9.77;;
43580;SDS011;29175;51.030;4.606;2023-02-28T07:33:41;23.73;;;10.10;;
43580;SDS011;29175;51.030;4.606;2023-02-28T07:36:09;34.03;;;11.30;;
43580;SDS011;29175;51.030;4.606;2023-02-28T07:38:41;22.50;;;10.02;;
43580;SDS011;29175;51.030;4.606;2023-02-28T07:41:11;19.20;;;9.80;;
43580;SDS011;29175;51.030;4.606;2023-02-28T07:43:37;65.90;;;14.88;;
43580;SDS011;29175;51.030;4.606;2023-02-28T07:46:10;39.13;;;12.23;;
43580;SDS011;29175;51.030;4.606;2023-02-28T07:48:37;21.50;;;9.68;;
43580;SDS011;29175;51.030;4.606;2023-02-28T07:51:03;22.50;;;9.85;;
43580;SDS011;29175;51.030;4.606;2023-02-28T07:53:29;29.80;;;11.52;;
43580;SDS011;29175;51.030;4.606;2023-02-28T07:55:56;24.70;;;9.75;;
43580;SDS011;29175;51.030;4.606;2023-02-28T07:58:23;20.30;;;9.38;;
43580;SDS011;29175;51.030;4.606;2023-02-28T08:00:49;28.95;;;9.95;;
43580;SDS011;29175;51.030;4.606;2023-02-28T08:03:17;152.60;;;17.75;;
43580;SDS011;29175;51.030;4.606;2023-02-28T08:05:44;44.20;;;10.48;;
43580;SDS011;29175;51.030;4.606;2023-02-28T08:08:09;15.75;;;8.57;;
43580;SDS011;29175;51.030;4.606;2023-02-28T08:10:35;15.48;;;7.82;;
43580;SDS011;29175;51.030;4.606;2023-02-28T08:13:01;16.30;;;8.38;;
43580;SDS011;29175;51.030;4.606;2023-02-28T08:15:27;19.25;;;8.18;;
43580;SDS011;29175;51.030;4.606;2023-02-28T08:17:53;20.00;;;7.65;;
43580;SDS011;29175;51.030;4.606;2023-02-28T08:20:21;25.30;;;7.57;;
43580;SDS011;29175;51.030;4.606;2023-02-28T08:22:48;19.00;;;6.82;;
43580;SDS011;29175;51.030;4.606;2023-02-28T08:25:14;18.20;;;6.38;;
43580;SDS011;29175;51.030;4.606;2023-02-28T08:27:40;81.43;;;11.93;;
43580;SDS011;29175;51.030;4.606;2023-02-28T08:30:06;45.05;;;8.55;;
43580;SDS011;29175;51.030;4.606;2023-02-28T08:32:33;15.35;;;6.10;;
43580;SDS011;29175;51.030;4.606;2023-02-28T08:34:59;15.00;;;6.25;;
43580;SDS011;29175;51.030;4.606;2023-02-28T08:37:25;15.98;;;6.72;;
43580;SDS011;29175;51.030;4.606;2023-02-28T08:39:51;10.30;;;5.47;;
43580;SDS011;29175;51.030;4.606;2023-02-28T08:42:16;13.43;;;6.13;;
43580;SDS011;29175;51.030;4.606;2023-02-28T08:44:42;14.32;;;5.25;;
43580;SDS011;29175;51.030;4.606;2023-02-28T08:47:08;18.70;;;5.93;;
43580;SDS011;29175;51.030;4.606;2023-02-28T08:49:34;40.03;;;6.32;;
43580;SDS011;29175;51.030;4.606;2023-02-28T08:52:00;7.97;;;4.55;;
43580;SDS011;29175;51.030;4.606;2023-02-28T08:54:25;9.23;;;5.15;;
43580;SDS011;29175;51.030;4.606;2023-02-28T08:56:53;8.93;;;4.68;;
43580;SDS011;29175;51.030;4.606;2023-02-28T08:59:19;14.82;;;5.35;;
43580;SDS011;29175;51.030;4.606;2023-02-28T09:01:45;18.98;;;5.70;;
43580;SDS011;29175;51.030;4.606;2023-02-28T09:04:11;114.20;;;13.48;;
43580;SDS011;29175;51.030;4.606;2023-02-28T09:06:37;8.30;;;3.90;;
43580;SDS011;29175;51.030;4.606;2023-02-28T09:09:03;9.00;;;4.60;;
43580;SDS011;29175;51.030;4.606;2023-02-28T09:11:31;7.20;;;3.85;;
43580;SDS011;29175;51.030;4.606;2023-02-28T09:13:57;8.48;;;4.63;;
43580;SDS011;29175;51.030;4.606;2023-02-28T09:16:24;11.25;;;3.55;;
43580;SDS011;29175;51.030;4.606;2023-02-28T09:18:49;8.98;;;3.75;;
43580;SDS011;29175;51.030;4.606;2023-02-28T09:21:16;10.10;;;4.47;;
43580;SDS011;29175;51.030;4.606;2023-02-28T09:23:44;6.68;;;4.30;;
43580;SDS011;29175;51.030;4.606;2023-02-28T09:26:15;29.63;;;6.03;;
43580;SDS011;29175;51.030;4.606;2023-02-28T09:28:48;22.95;;;4.72;;
43580;SDS011;29175;51.030;4.606;2023-02-28T09:31:18;6.78;;;3.83;;
43580;SDS011;29175;51.030;4.606;2023-02-28T09:33:47;8.32;;;4.05;;
43580;SDS011;29175;51.030;4.606;2023-02-28T09:36:13;5.75;;;4.28;;
43580;SDS011;29175;51.030;4.606;2023-02-28T09:38:39;78.95;;;9.15;;
43580;SDS011;29175;51.030;4.606;2023-02-28T09:41:11;5.25;;;3.55;;
43580;SDS011;29175;51.030;4.606;2023-02-28T09:43:41;8.02;;;3.47;;
43580;SDS011;29175;51.030;4.606;2023-02-28T09:46:25;12.63;;;4.13;;
43580;SDS011;29175;51.030;4.606;2023-02-28T09:52:28;4.85;;;2.92;;
43580;SDS011;29175;51.030;4.606;2023-02-28T09:54:55;6.78;;;2.90;;
43580;SDS011;29175;51.030;4.606;2023-02-28T09:57:37;6.78;;;2.95;;
43580;SDS011;29175;51.030;4.606;2023-02-28T10:03:00;5.55;;;3.20;;
43580;SDS011;29175;51.030;4.606;2023-02-28T10:05:43;6.30;;;3.50;;
43580;SDS011;29175;51.030;4.606;2023-02-28T10:08:25;5.28;;;3.17;;
43580;SDS011;29175;51.030;4.606;2023-02-28T10:10:55;8.73;;;3.78;;
43580;SDS011;29175;51.030;4.606;2023-02-28T10:13:26;7.80;;;3.10;;
43580;SDS011;29175;51.030;4.606;2023-02-28T10:16:00;6.63;;;3.60;;
43580;SDS011;29175;51.030;4.606;2023-02-28T10:18:35;5.22;;;3.30;;
43580;SDS011;29175;51.030;4.606;2023-02-28T10:21:30;4.05;;;2.50;;
43580;SDS011;29175;51.030;4.606;2023-02-28T10:26:45;3.88;;;2.30;;
43580;SDS011;29175;51.030;4.606;2023-02-28T10:29:13;5.65;;;2.60;;
43580;SDS011;29175;51.030;4.606;2023-02-28T10:31:39;5.40;;;2.65;;
43580;SDS011;29175;51.030;4.606;2023-02-28T10:34:05;4.00;;;3.10;;
43580;SDS011;29175;51.030;4.606;2023-02-28T10:36:32;6.00;;;3.05;;
43580;SDS011;29175;51.030;4.606;2023-02-28T10:38:58;11.55;;;3.08;;
43580;SDS011;29175;51.030;4.606;2023-02-28T10:41:31;3.78;;;2.92;;
43580;SDS011;29175;51.030;4.606;2023-02-28T10:46:57;5.97;;;3.28;;
43580;SDS011;29175;51.030;4.606;2023-02-28T10:49:28;5.35;;;3.60;;
43580;SDS011;29175;51.030;4.606;2023-02-28T10:51:58;5.90;;;3.25;;
43580;SDS011;29175;51.030;4.606;2023-02-28T10:54:35;6.50;;;3.30;;
43580;SDS011;29175;51.030;4.606;2023-02-28T10:57:20;9.73;;;3.33;;
43580;SDS011;29175;51.030;4.606;2023-02-28T10:59:52;7.57;;;3.63;;
43580;SDS011;29175;51.030;4.606;2023-02-28T11:02:38;18.38;;;4.78;;
43580;SDS011;29175;51.030;4.606;2023-02-28T11:07:55;5.53;;;3.55;;
43580;SDS011;29175;51.030;4.606;2023-02-28T11:10:30;8.20;;;3.17;;
43580;SDS011;29175;51.030;4.606;2023-02-28T11:12:59;43.42;;;6.43;;
43580;SDS011;29175;51.030;4.606;2023-02-28T11:15:29;6.22;;;3.08;;
43580;SDS011;29175;51.030;4.606;2023-02-28T11:20:26;13.73;;;3.50;;
43580;SDS011;29175;51.030;4.606;2023-02-28T11:22:55;10.18;;;3.20;;
43580;SDS011;29175;51.030;4.606;2023-02-28T11:25:23;5.40;;;2.88;;
43580;SDS011;29175;51.030;4.606;2023-02-28T11:28:03;6.40;;;3.30;;
43580;SDS011;29175;51.030;4.606;2023-02-28T11:30:38;7.13;;;3.53;;
43580;SDS011;29175;51.030;4.606;2023-02-28T11:33:48;7.43;;;3.70;;
43580;SDS011;29175;51.030;4.606;2023-02-28T11:36:02;10.75;;;3.30;;
43580;SDS011;29175;51.030;4.606;2023-02-28T11:38:34;3.78;;;2.92;;
43580;SDS011;29175;51.030;4.606;2023-02-28T11:46:37;6.20;;;2.92;;
43580;SDS011;29175;51.030;4.606;2023-02-28T11:49:34;5.10;;;3.17;;
43580;SDS011;29175;51.030;4.606;2023-02-28T11:55:58;28.33;;;4.10;;
43580;SDS011;29175;51.030;4.606;2023-02-28T12:06:51;16.00;;;3.58;;
43580;SDS011;29175;51.030;4.606;2023-02-28T12:09:44;6.80;;;3.45;;
43580;SDS011;29175;51.030;4.606;2023-02-28T12:12:29;11.30;;;3.13;;
43580;SDS011;29175;51.030;4.606;2023-02-28T12:15:00;11.95;;;3.40;;
43580;SDS011;29175;51.030;4.606;2023-02-28T12:25:48;7.63;;;3.05;;
43580;SDS011;29175;51.030;4.606;2023-02-28T12:28:22;30.50;;;5.43;;
43580;SDS011;29175;51.030;4.606;2023-02-28T12:30:55;29.77;;;5.78;;
43580;SDS011;29175;51.030;4.606;2023-02-28T12:33:46;4.53;;;2.90;;
43580;SDS011;29175;51.030;4.606;2023-02-28T12:36:17;5.95;;;3.22;;
43580;SDS011;29175;51.030;4.606;2023-02-28T12:41:34;5.80;;;3.22;;
43580;SDS011;29175;51.030;4.606;2023-02-28T12:44:15;6.65;;;3.30;;
43580;SDS011;29175;51.030;4.606;2023-02-28T12:46:49;6.55;;;3.40;;
43580;SDS011;29175;51.030;4.606;2023-02-28T12:52:15;5.50;;;3.53;;
43580;SDS011;29175;51.030;4.606;2023-02-28T12:54:53;9.40;;;3.50;;
43580;SDS011;29175;51.030;4.606;2023-02-28T13:00:15;19.17;;;4.15;;
43580;SDS011;29175;51.030;4.606;2023-02-28T13:05:34;7.00;;;4.07;;
43580;SDS011;29175;51.030;4.606;2023-02-28T13:10:49;8.30;;;4.45;;
43580;SDS011;29175;51.030;4.606;2023-02-28T13:13:23;6.57;;;4.20;;
43580;SDS011;29175;51.030;4.606;2023-02-28T13:15:59;5.22;;;3.60;;
43580;SDS011;29175;51.030;4.606;2023-02-28T13:21:06;8.18;;;4.25;;
43580;SDS011;29175;51.030;4.606;2023-02-28T13:26:23;5.10;;;3.45;;
43580;SDS011;29175;51.030;4.606;2023-02-28T13:34:31;9.80;;;3.88;;
43580;SDS011;29175;51.030;4.606;2023-02-28T13:42:32;8.95;;;4.43;;
43580;SDS011;29175;51.030;4.606;2023-02-28T13:47:28;66.63;;;8.90;;
43580;SDS011;29175;51.030;4.606;2023-02-28T13:53:02;10.40;;;4.60;;
43580;SDS011;29175;51.030;4.606;2023-02-28T13:58:38;6.40;;;4.00;;
43580;SDS011;29175;51.030;4.606;2023-02-28T14:06:53;10.43;;;4.47;;
43580;SDS011;29175;51.030;4.606;2023-02-28T14:11:46;14.70;;;4.63;;
43580;SDS011;29175;51.030;4.606;2023-02-28T14:16:59;16.20;;;4.35;;
43580;SDS011;29175;51.030;4.606;2023-02-28T14:19:30;41.38;;;6.53;;
43580;SDS011;29175;51.030;4.606;2023-02-28T14:27:24;21.83;;;4.60;;
43580;SDS011;29175;51.030;4.606;2023-02-28T14:36:03;7.63;;;3.97;;
43580;SDS011;29175;51.030;4.606;2023-02-28T14:38:28;7.55;;;4.15;;
43580;SDS011;29175;51.030;4.606;2023-02-28T14:41:03;6.50;;;3.90;;
43580;SDS011;29175;51.030;4.606;2023-02-28T14:43:47;6.65;;;4.22;;
43580;SDS011;29175;51.030;4.606;2023-02-28T14:46:18;8.70;;;4.30;;
43580;SDS011;29175;51.030;4.606;2023-02-28T14:48:45;7.22;;;3.90;;
43580;SDS011;29175;51.030;4.606;2023-02-28T14:51:12;6.10;;;3.97;;
43580;SDS011;29175;51.030;4.606;2023-02-28T14:53:46;7.53;;;4.78;;
43580;SDS011;29175;51.030;4.606;2023-02-28T14:56:19;14.25;;;4.93;;
43580;SDS011;29175;51.030;4.606;2023-02-28T14:58:51;8.32;;;4.85;;
43580;SDS011;29175;51.030;4.606;2023-02-28T15:01:20;6.68;;;4.35;;
43580;SDS011;29175;51.030;4.606;2023-02-28T15:03:48;11.32;;;4.85;;
43580;SDS011;29175;51.030;4.606;2023-02-28T15:06:23;8.13;;;4.72;;
43580;SDS011;29175;51.030;4.606;2023-02-28T15:09:06;9.30;;;4.70;;
43580;SDS011;29175;51.030;4.606;2023-02-28T15:11:39;19.67;;;5.18;;
43580;SDS011;29175;51.030;4.606;2023-02-28T15:14:05;6.30;;;4.43;;
43580;SDS011;29175;51.030;4.606;2023-02-28T15:16:32;7.78;;;4.45;;
43580;SDS011;29175;51.030;4.606;2023-02-28T15:21:39;7.10;;;4.53;;
43580;SDS011;29175;51.030;4.606;2023-02-28T15:24:23;9.52;;;4.95;;
43580;SDS011;29175;51.030;4.606;2023-02-28T15:26:58;7.20;;;4.95;;
43580;SDS011;29175;51.030;4.606;2023-02-28T15:29:29;6.95;;;4.50;;
43580;SDS011;29175;51.030;4.606;2023-02-28T15:32:05;10.20;;;5.35;;
43580;SDS011;29175;51.030;4.606;2023-02-28T15:40:26;8.25;;;4.72;;
43580;SDS011;29175;51.030;4.606;2023-02-28T15:48:05;8.02;;;4.75;;
43580;SDS011;29175;51.030;4.606;2023-02-28T15:50:43;9.10;;;4.88;;
43580;SDS011;29175;51.030;4.606;2023-02-28T15:53:12;10.55;;;4.43;;
43580;SDS011;29175;51.030;4.606;2023-02-28T15:55:40;6.45;;;4.40;;
43580;SDS011;29175;51.030;4.606;2023-02-28T15:58:08;8.13;;;5.20;;
43580;SDS011;29175;51.030;4.606;2023-02-28T16:00:37;8.95;;;4.88;;
43580;SDS011;29175;51.030;4.606;2023-02-28T16:03:23;7.82;;;4.95;;
43580;SDS011;29175;51.030;4.606;2023-02-28T16:06:09;8.18;;;4.40;;
43580;SDS011;29175;51.030;4.606;2023-02-28T16:08:41;7.07;;;4.53;;
43580;SDS011;29175;51.030;4.606;2023-02-28T16:11:08;8.77;;;4.70;;
43580;SDS011;29175;51.030;4.606;2023-02-28T16:13:35;10.77;;;4.50;;
43580;SDS011;29175;51.030;4.606;2023-02-28T16:16:01;6.68;;;4.50;;
43580;SDS011;29175;51.030;4.606;2023-02-28T16:18:27;6.72;;;4.05;;
43580;SDS011;29175;51.030;4.606;2023-02-28T16:20:53;10.98;;;5.45;;
43580;SDS011;29175;51.030;4.606;2023-02-28T16:23:19;8.93;;;4.45;;
43580;SDS011;29175;51.030;4.606;2023-02-28T16:25:45;8.93;;;4.90;;
43580;SDS011;29175;51.030;4.606;2023-02-28T16:28:21;27.35;;;5.68;;
43580;SDS011;29175;51.030;4.606;2023-02-28T16:30:54;11.68;;;4.97;;
43580;SDS011;29175;51.030;4.606;2023-02-28T16:33:20;8.50;;;4.70;;
43580;SDS011;29175;51.030;4.606;2023-02-28T16:35:46;7.53;;;4.90;;
43580;SDS011;29175;51.030;4.606;2023-02-28T16:38:12;14.88;;;5.15;;
43580;SDS011;29175;51.030;4.606;2023-02-28T16:40:38;9.77;;;4.75;;
43580;SDS011;29175;51.030;4.606;2023-02-28T16:43:07;7.95;;;4.57;;
43580;SDS011;29175;51.030;4.606;2023-02-28T16:45:40;24.00;;;5.85;;
43580;SDS011;29175;51.030;4.606;2023-02-28T16:48:07;30.15;;;7.88;;
43580;SDS011;29175;51.030;4.606;2023-02-28T16:50:38;23.67;;;6.18;;
43580;SDS011;29175;51.030;4.606;2023-02-28T16:53:04;11.73;;;4.95;;
43580;SDS011;29175;51.030;4.606;2023-02-28T16:55:30;12.30;;;4.78;;
43580;SDS011;29175;51.030;4.606;2023-02-28T16:57:57;34.78;;;7.00;;
43580;SDS011;29175;51.030;4.606;2023-02-28T17:00:25;12.63;;;4.95;;
43580;SDS011;29175;51.030;4.606;2023-02-28T17:02:52;13.65;;;5.03;;
43580;SDS011;29175;51.030;4.606;2023-02-28T17:05:18;7.15;;;4.75;;
43580;SDS011;29175;51.030;4.606;2023-02-28T17:07:45;8.55;;;4.25;;
43580;SDS011;29175;51.030;4.606;2023-02-28T17:10:16;8.00;;;4.80;;
43580;SDS011;29175;51.030;4.606;2023-02-28T17:12:42;11.27;;;5.05;;
43580;SDS011;29175;51.030;4.606;2023-02-28T17:15:09;11.70;;;5.57;;
43580;SDS011;29175;51.030;4.606;2023-02-28T17:17:36;9.75;;;5.00;;
43580;SDS011;29175;51.030;4.606;2023-02-28T17:20:02;10.02;;;5.22;;
43580;SDS011;29175;51.030;4.606;2023-02-28T17:22:29;9.15;;;5.70;;
43580;SDS011;29175;51.030;4.606;2023-02-28T17:24:55;14.50;;;6.75;;
43580;SDS011;29175;51.030;4.606;2023-02-28T17:27:21;15.35;;;6.25;;